createdAt,value
2023-05-17T00:01:30.073Z,100300.28
2023-05-17T00:04:17.045Z,100313.41
2023-05-17T00:07:03.699Z,100309.63
2023-05-17T00:09:50.501Z,100314.00
2023-05-17T00:12:40.592Z,100315.63
2023-05-17T00:15:30.272Z,100313.22
2023-05-17T00:18:17.028Z,100318.38
2023-05-17T00:21:12.905Z,100321.03
2023-05-17T00:23:59.505Z,100305.00
2023-05-17T00:26:46.263Z,100300.28
2023-05-17T00:29:32.939Z,100312.38
2023-05-17T00:32:19.545Z,100307.44
2023-05-17T00:35:06.780Z,100293.66
2023-05-17T00:37:56.686Z,100250.34
2023-05-17T00:40:43.378Z,100281.00
2023-05-17T00:43:29.857Z,100301.69
2023-05-17T00:46:16.710Z,100282.63
2023-05-17T00:49:03.834Z,100304.78
2023-05-17T00:51:50.534Z,100259.75
2023-05-17T00:54:37.406Z,100304.78
2023-05-17T00:57:24.092Z,100265.38
2023-05-17T01:00:11.238Z,100244.41
2023-05-17T01:02:58.166Z,100259.47
2023-05-17T01:05:45.265Z,100307.97
2023-05-17T01:08:31.803Z,100319.09
2023-05-17T01:11:29.704Z,100306.03
2023-05-17T01:14:30.961Z,100321.25
2023-05-17T01:17:29.067Z,100318.34
2023-05-17T01:20:36.759Z,100320.78
2023-05-17T01:23:41.893Z,100315.59
2023-05-17T01:26:47.290Z,100317.88
2023-05-17T01:29:37.502Z,100302.38
2023-05-17T01:32:25.580Z,100338.00
2023-05-17T01:35:13.532Z,100328.78
2023-05-17T01:38:00.180Z,100292.06
2023-05-17T01:41:07.361Z,100318.06
2023-05-17T01:44:08.431Z,100298.22
2023-05-17T01:47:03.148Z,100301.16
2023-05-17T01:49:53.709Z,100316.72
2023-05-17T01:52:46.737Z,100320.44
2023-05-17T01:55:50.473Z,100316.63
2023-05-17T01:58:45.266Z,100325.50
2023-05-17T02:01:35.666Z,100301.56
2023-05-17T02:04:22.958Z,100329.56
2023-05-17T02:07:09.616Z,100329.56
2023-05-17T02:09:58.949Z,100282.72
2023-05-17T02:12:45.333Z,100318.13
2023-05-17T02:15:32.384Z,100311.25
2023-05-17T02:18:22.272Z,100337.41
2023-05-17T02:21:09.476Z,100299.41
2023-05-17T02:23:58.719Z,100352.03
2023-05-17T02:26:51.560Z,100342.16
2023-05-17T02:29:40.936Z,100336.31
2023-05-17T02:32:29.351Z,100320.31
2023-05-17T02:35:16.045Z,100338.59
2023-05-17T02:38:06.069Z,100333.25
2023-05-17T02:40:52.675Z,100317.59
2023-05-17T02:43:39.664Z,100347.41
2023-05-17T02:46:26.548Z,100373.28
2023-05-17T02:49:13.367Z,100374.41
2023-05-17T02:52:01.058Z,100373.28
2023-05-17T02:54:48.284Z,100348.66
2023-05-17T02:57:34.763Z,100357.22
2023-05-17T03:00:21.805Z,100340.75
2023-05-17T03:03:08.765Z,100305.03
2023-05-17T03:06:00.825Z,100319.63
2023-05-17T03:08:48.357Z,100371.06
2023-05-17T03:11:35.859Z,100380.84
2023-05-17T03:14:26.138Z,100370.59
2023-05-17T03:17:14.101Z,100333.91
2023-05-17T03:20:02.114Z,100341.84
2023-05-17T03:22:50.204Z,100321.63
2023-05-17T03:25:41.785Z,100385.22
2023-05-17T03:28:29.079Z,100389.41
2023-05-17T03:31:15.834Z,100388.94
2023-05-17T03:34:03.128Z,100366.13
2023-05-17T03:36:53.019Z,100396.84
2023-05-17T03:39:39.783Z,100343.31
2023-05-17T03:42:29.566Z,100387.44
2023-05-17T03:45:16.863Z,100400.91
2023-05-17T03:48:03.474Z,100407.88
2023-05-17T03:50:50.395Z,100397.50
2023-05-17T03:53:41.381Z,100407.72
2023-05-17T03:56:28.246Z,100414.88
2023-05-17T03:59:15.152Z,100406.25
2023-05-17T04:02:02.203Z,100432.38
2023-05-17T04:04:53.484Z,100413.75
2023-05-17T04:07:45.942Z,100375.75
2023-05-17T04:10:32.960Z,100398.88
2023-05-17T04:13:20.035Z,100364.56
2023-05-17T04:16:08.760Z,100435.78
2023-05-17T04:18:56.972Z,100433.03
2023-05-17T04:21:44.826Z,100427.88
2023-05-17T04:24:31.709Z,100394.84
2023-05-17T04:27:19.001Z,100429.66
2023-05-17T04:30:06.816Z,100432.25
2023-05-17T04:32:54.111Z,100400.50
2023-05-17T04:35:42.839Z,100407.97
2023-05-17T04:38:29.331Z,100432.88
2023-05-17T04:41:18.748Z,100434.47
2023-05-17T04:44:07.501Z,100436.28
2023-05-17T04:46:59.138Z,100437.88
2023-05-17T04:49:47.501Z,100392.25
2023-05-17T04:52:34.211Z,100446.31
2023-05-17T04:55:21.728Z,100453.78
2023-05-17T04:58:09.573Z,100408.28
2023-05-17T05:00:57.758Z,100451.22
2023-05-17T05:03:44.467Z,100425.34
2023-05-17T05:06:34.920Z,100457.38
2023-05-17T05:09:25.116Z,100459.16
2023-05-17T05:12:12.366Z,100453.28
2023-05-17T05:15:01.985Z,100454.72
2023-05-17T05:17:49.373Z,100445.34
2023-05-17T05:20:41.203Z,100464.63
2023-05-17T05:23:28.896Z,100424.28
2023-05-17T05:26:15.972Z,100469.63
2023-05-17T05:29:04.322Z,100417.47
2023-05-17T05:31:58.733Z,100471.69
2023-05-17T05:34:47.931Z,100477.38
2023-05-17T05:37:34.910Z,100484.00
2023-05-17T05:40:21.707Z,100469.28
2023-05-17T05:43:08.677Z,100465.50
2023-05-17T05:45:55.332Z,100483.09
2023-05-17T05:48:43.735Z,100457.19
2023-05-17T05:51:35.609Z,100494.75
2023-05-17T05:54:22.712Z,100500.75
2023-05-17T05:57:11.434Z,100512.63
2023-05-17T05:59:59.326Z,100484.34
2023-05-17T06:02:46.554Z,100515.28
2023-05-17T06:05:33.767Z,100507.34
2023-05-17T06:08:23.666Z,100490.19
2023-05-17T06:11:10.914Z,100520.41
2023-05-17T06:13:57.678Z,100518.59
2023-05-17T06:16:44.445Z,100520.84
2023-05-17T06:19:31.000Z,100522.16
2023-05-17T06:22:17.942Z,100510.97
2023-05-17T06:25:05.316Z,100520.66
2023-05-17T06:27:57.035Z,100508.63
2023-05-17T06:30:44.551Z,100525.75
2023-05-17T06:33:31.363Z,100465.63
2023-05-17T06:36:18.299Z,100499.53
2023-05-17T06:39:04.869Z,100463.16
2023-05-17T06:41:53.869Z,100494.75
2023-05-17T06:44:43.890Z,100492.03
2023-05-17T06:47:30.548Z,100520.34
2023-05-17T06:50:20.653Z,100510.91
2023-05-17T06:53:08.005Z,100524.25
2023-05-17T06:56:03.205Z,100515.56
2023-05-17T06:58:49.591Z,100499.19
2023-05-17T07:01:37.218Z,100527.25
2023-05-17T07:04:24.072Z,100516.28
2023-05-17T07:07:11.712Z,100494.06
2023-05-17T07:09:58.284Z,100515.44
2023-05-17T07:12:45.037Z,100515.44
2023-05-17T07:15:32.764Z,100503.03
2023-05-17T07:18:27.386Z,100533.56
2023-05-17T07:21:13.846Z,100485.94
2023-05-17T07:24:01.086Z,100481.09
2023-05-17T07:26:48.506Z,100535.41
2023-05-17T07:29:38.880Z,100524.59
2023-05-17T07:32:25.727Z,100508.44
2023-05-17T07:35:12.710Z,100495.75
2023-05-17T07:37:59.165Z,100500.38
2023-05-17T07:40:46.597Z,100550.59
2023-05-17T07:43:33.219Z,100562.91
2023-05-17T07:46:19.783Z,100514.19
2023-05-17T07:49:10.857Z,100558.03
2023-05-17T07:51:59.564Z,100569.41
2023-05-17T07:54:46.120Z,100552.91
2023-05-17T07:57:36.126Z,100584.41
2023-05-17T08:00:25.765Z,100588.16
2023-05-17T08:03:14.461Z,100591.91
2023-05-17T08:06:02.524Z,100596.53
2023-05-17T08:08:55.326Z,100562.59
2023-05-17T08:11:48.994Z,100569.34
2023-05-17T08:14:36.011Z,100527.72
2023-05-17T08:17:25.542Z,100597.53
2023-05-17T08:20:13.143Z,100582.97
2023-05-17T08:22:59.985Z,100581.53
2023-05-17T08:25:49.096Z,100583.31
2023-05-17T08:28:35.479Z,100560.56
2023-05-17T08:31:22.124Z,100584.69
2023-05-17T08:34:11.632Z,100580.19
2023-05-17T08:36:59.216Z,100568.88
2023-05-17T08:39:45.742Z,100565.41
2023-05-17T08:42:32.713Z,100581.47
2023-05-17T08:45:19.502Z,100535.59
2023-05-17T08:48:09.145Z,100560.31
2023-05-17T08:50:56.421Z,100546.16
2023-05-17T08:53:43.016Z,100557.44
2023-05-17T08:56:31.418Z,100594.19
2023-05-17T08:59:22.898Z,100609.47
2023-05-17T09:02:10.434Z,100600.63
2023-05-17T09:04:58.617Z,100602.63
2023-05-17T09:07:48.689Z,100566.81
2023-05-17T09:10:35.893Z,100605.47
2023-05-17T09:13:25.699Z,100567.47
2023-05-17T09:16:16.411Z,100571.84
2023-05-17T09:19:04.368Z,100583.88
2023-05-17T09:21:52.316Z,100593.09
2023-05-17T09:24:44.087Z,100575.88
2023-05-17T09:27:34.101Z,100588.13
2023-05-17T09:30:26.824Z,100534.47
2023-05-17T09:33:15.233Z,100566.00
2023-05-17T09:36:04.551Z,100598.97
2023-05-17T09:39:08.156Z,100572.97
2023-05-17T09:41:57.470Z,100595.81
2023-05-17T09:44:47.872Z,100591.44
2023-05-17T09:47:35.530Z,100562.38
2023-05-17T09:50:25.342Z,100556.41
2023-05-17T09:53:29.936Z,100601.56
2023-05-17T09:56:19.954Z,100589.16
2023-05-17T09:59:15.130Z,100547.78
2023-05-17T10:02:05.668Z,100606.31
2023-05-17T10:04:56.607Z,100570.59
2023-05-17T10:07:44.955Z,100596.66
2023-05-17T10:10:31.649Z,100611.22
2023-05-17T10:13:24.945Z,100614.31
2023-05-17T10:16:13.626Z,100624.59
2023-05-17T10:19:02.759Z,100605.97
2023-05-17T10:21:53.514Z,100602.53
2023-05-17T10:24:40.894Z,100591.34
2023-05-17T10:27:28.474Z,100595.34
2023-05-17T10:30:16.064Z,100607.25
2023-05-17T10:33:07.371Z,100596.38
2023-05-17T10:35:57.559Z,100580.06
2023-05-17T10:38:44.790Z,100581.69
2023-05-17T10:41:34.751Z,100585.25
2023-05-17T10:44:22.267Z,100601.56
2023-05-17T10:47:11.631Z,100608.25
2023-05-17T10:49:58.399Z,100607.16
2023-05-17T10:52:51.177Z,100592.09
2023-05-17T10:55:42.234Z,100610.63
2023-05-17T10:58:29.808Z,100616.34
2023-05-17T11:01:53.626Z,100620.06
2023-05-17T11:04:42.716Z,100615.94
2023-05-17T11:07:33.015Z,100616.28
2023-05-17T11:10:19.866Z,100603.56
2023-05-17T11:13:30.956Z,100572.28
2023-05-17T11:16:19.032Z,100616.97
2023-05-17T11:19:10.899Z,100612.13
2023-05-17T11:21:58.061Z,100599.19
2023-05-17T11:24:48.414Z,100618.78
2023-05-17T11:27:48.430Z,100626.03
2023-05-17T11:30:35.085Z,100630.16
2023-05-17T11:33:39.553Z,100632.25
2023-05-17T11:36:26.345Z,100616.34
2023-05-17T11:39:15.515Z,100633.53
2023-05-17T11:42:04.773Z,100622.47
2023-05-17T11:44:52.098Z,100628.56
2023-05-17T11:47:40.759Z,100607.47
2023-05-17T11:50:27.711Z,100612.75
2023-05-17T11:53:15.724Z,100619.69
2023-05-17T11:56:06.135Z,100604.72
2023-05-17T11:58:57.774Z,100645.91
2023-05-17T12:01:49.037Z,100626.47
2023-05-17T12:04:38.144Z,100628.44
2023-05-17T12:07:26.491Z,100612.47
2023-05-17T12:10:16.309Z,100635.66
2023-05-17T12:13:04.104Z,100659.59
2023-05-17T12:15:57.726Z,100610.97
2023-05-17T12:18:47.715Z,100658.47
2023-05-17T12:21:34.820Z,100660.19
2023-05-17T12:24:22.103Z,100605.56
2023-05-17T12:27:09.339Z,100654.41
2023-05-17T12:29:59.308Z,100662.31
2023-05-17T12:32:46.886Z,100638.34
2023-05-17T12:35:36.325Z,100664.13
2023-05-17T12:38:22.772Z,100659.13
2023-05-17T12:41:12.638Z,100655.84
2023-05-17T12:44:13.613Z,100625.22
2023-05-17T12:47:05.662Z,100656.84
2023-05-17T12:49:54.705Z,100629.94
2023-05-17T12:52:44.012Z,100660.84
2023-05-17T12:55:46.044Z,100652.41
2023-05-17T12:58:32.800Z,100660.28
2023-05-17T13:01:19.324Z,100652.81
2023-05-17T13:04:06.826Z,100622.09
2023-05-17T13:06:55.074Z,100658.03
2023-05-17T13:09:50.224Z,100659.06
2023-05-17T13:12:39.454Z,100653.41
2023-05-17T13:15:39.140Z,100648.22
2023-05-17T13:18:29.233Z,100621.69
2023-05-17T13:21:20.521Z,100638.84
2023-05-17T13:24:09.636Z,100659.81
2023-05-17T13:27:02.557Z,100660.00
2023-05-17T13:29:50.075Z,100660.16
2023-05-17T13:32:41.588Z,100661.63
2023-05-17T13:35:29.832Z,100655.72
2023-05-17T13:38:16.754Z,100636.59
2023-05-17T13:41:03.668Z,100626.41
2023-05-17T13:43:50.264Z,100660.88
2023-05-17T13:46:37.153Z,100661.72
2023-05-17T13:49:28.742Z,100669.19
2023-05-17T13:52:15.564Z,100671.63
2023-05-17T13:55:05.017Z,100617.56
2023-05-17T13:57:51.687Z,100640.91
2023-05-17T14:00:44.155Z,100666.47
2023-05-17T14:03:30.936Z,100657.44
2023-05-17T14:06:18.118Z,100684.81
2023-05-17T14:09:04.975Z,100692.91
2023-05-17T14:11:53.969Z,100692.34
2023-05-17T14:14:40.351Z,100684.31
2023-05-17T14:17:28.076Z,100705.84
2023-05-17T14:20:16.770Z,100696.59
2023-05-17T14:23:03.877Z,100717.84
2023-05-17T14:25:50.804Z,100706.22
2023-05-17T14:28:39.243Z,100684.66
2023-05-17T14:31:30.393Z,100719.09
2023-05-17T14:34:19.800Z,100714.84
2023-05-17T14:37:07.045Z,100683.03
2023-05-17T14:40:05.840Z,100732.88
2023-05-17T14:42:55.934Z,100720.84
2023-05-17T14:45:43.009Z,100697.97
2023-05-17T14:48:31.347Z,100706.56
2023-05-17T14:51:19.417Z,100698.44
2023-05-17T14:54:06.284Z,100743.75
2023-05-17T14:56:53.644Z,100758.34
2023-05-17T14:59:40.721Z,100725.75
2023-05-17T15:02:27.814Z,100757.53
2023-05-17T15:05:14.367Z,100762.72
2023-05-17T15:08:02.691Z,100760.47
2023-05-17T15:10:50.881Z,100770.84
2023-05-17T15:13:38.436Z,100778.78
2023-05-17T15:16:28.107Z,100728.94
2023-05-17T15:19:18.490Z,100779.59
2023-05-17T15:22:06.041Z,100761.91
2023-05-17T15:24:54.408Z,100789.50
2023-05-17T15:27:46.524Z,100789.53
2023-05-17T15:30:33.651Z,100797.47
2023-05-17T15:33:20.339Z,100790.66
2023-05-17T15:36:13.056Z,100746.66
2023-05-17T15:38:59.815Z,100809.81
2023-05-17T15:41:49.125Z,100809.31
2023-05-17T15:44:36.110Z,100820.66
2023-05-17T15:47:28.682Z,100815.28
2023-05-17T15:50:22.247Z,100815.94
2023-05-17T15:53:09.255Z,100824.84
2023-05-17T15:55:57.612Z,100827.25
2023-05-17T15:58:44.549Z,100826.22
2023-05-17T16:01:31.257Z,100787.25
2023-05-17T16:04:18.529Z,100827.66
2023-05-17T16:07:05.615Z,100830.72
2023-05-17T16:09:53.360Z,100788.31
2023-05-17T16:12:40.174Z,100833.97
2023-05-17T16:15:28.215Z,100842.56
2023-05-17T16:18:15.682Z,100827.09
2023-05-17T16:21:04.254Z,100862.66
2023-05-17T16:23:50.743Z,100859.41
2023-05-17T16:26:38.641Z,100850.78
2023-05-17T16:29:25.246Z,100865.31
2023-05-17T16:32:12.053Z,100854.53
2023-05-17T16:35:01.940Z,100868.66
2023-05-17T16:37:49.603Z,100868.28
2023-05-17T16:40:41.278Z,100877.28
2023-05-17T16:43:28.366Z,100862.31
2023-05-17T16:46:15.079Z,100877.03
2023-05-17T16:49:02.122Z,100804.16
2023-05-17T16:51:53.059Z,100886.19
2023-05-17T16:54:47.534Z,100824.16
2023-05-17T16:57:34.425Z,100889.69
2023-05-17T17:00:23.811Z,100883.19
2023-05-17T17:03:10.277Z,100858.94
2023-05-17T17:05:57.275Z,100871.03
2023-05-17T17:08:45.691Z,100880.59
2023-05-17T17:11:33.135Z,100842.44
2023-05-17T17:14:20.262Z,100841.44
2023-05-17T17:17:10.437Z,100883.31
2023-05-17T17:19:56.923Z,100884.47
2023-05-17T17:22:43.647Z,100891.13
2023-05-17T17:25:33.229Z,100890.81
2023-05-17T17:28:22.349Z,100894.38
2023-05-17T17:31:08.815Z,100913.34
2023-05-17T17:33:55.826Z,100896.47
2023-05-17T17:36:42.185Z,100916.53
2023-05-17T17:39:35.978Z,100922.75
2023-05-17T17:42:25.368Z,100918.66
2023-05-17T17:45:12.620Z,100913.50
2023-05-17T17:47:59.332Z,100885.47
2023-05-17T17:50:46.141Z,100931.41
2023-05-17T17:53:32.909Z,100875.25
2023-05-17T17:56:22.310Z,100929.66
2023-05-17T17:59:08.841Z,100936.09
2023-05-17T18:01:56.224Z,100892.72
2023-05-17T18:04:43.689Z,100906.28
2023-05-17T18:07:36.050Z,100870.13
2023-05-17T18:10:24.425Z,100930.63
2023-05-17T18:13:14.381Z,100920.16
2023-05-17T18:16:01.267Z,100932.66
2023-05-17T18:18:52.515Z,100922.28
2023-05-17T18:21:39.665Z,100924.31
2023-05-17T18:24:26.394Z,100923.91
2023-05-17T18:27:13.995Z,100920.44
2023-05-17T18:30:04.697Z,100935.09
2023-05-17T18:32:54.448Z,100919.69
2023-05-17T18:35:46.322Z,100948.41
2023-05-17T18:38:32.670Z,100943.88
2023-05-17T18:41:19.868Z,100953.25
2023-05-17T18:44:06.767Z,100959.69
2023-05-17T18:46:57.181Z,100922.69
2023-05-17T18:49:47.325Z,100927.06
2023-05-17T18:52:34.058Z,100965.72
2023-05-17T18:55:23.217Z,100961.28
2023-05-17T18:58:10.297Z,100956.50
2023-05-17T19:00:59.457Z,100962.78
2023-05-17T19:03:57.259Z,100979.91
2023-05-17T19:06:44.277Z,100981.84
2023-05-17T19:09:32.443Z,100986.22
2023-05-17T19:12:21.918Z,101006.50
2023-05-17T19:15:12.458Z,100952.41
2023-05-17T19:17:58.994Z,101002.91
2023-05-17T19:20:49.050Z,101018.28
2023-05-17T19:23:36.968Z,101016.16
2023-05-17T19:26:24.223Z,101021.97
2023-05-17T19:29:11.694Z,100993.59
2023-05-17T19:32:00.122Z,101016.28
2023-05-17T19:34:50.113Z,101011.00
2023-05-17T19:37:39.501Z,101015.47
2023-05-17T19:40:27.099Z,101022.34
2023-05-17T19:43:20.154Z,101026.97
2023-05-17T19:46:13.694Z,101028.25
2023-05-17T19:49:05.632Z,101036.06
2023-05-17T19:51:54.342Z,101044.19
2023-05-17T19:54:41.769Z,101050.69
2023-05-17T19:57:32.997Z,101039.34
2023-05-17T20:00:25.257Z,101055.56
2023-05-17T20:03:12.301Z,101071.44
2023-05-17T20:06:02.441Z,101085.09
2023-05-17T20:08:49.313Z,101081.44
2023-05-17T20:11:41.997Z,101035.31
2023-05-17T20:14:28.827Z,101101.81
2023-05-17T20:17:17.535Z,101088.09
2023-05-17T20:20:09.285Z,101071.38
2023-05-17T20:22:59.117Z,101105.53
2023-05-17T20:25:48.875Z,101062.81
2023-05-17T20:28:37.020Z,101103.16
2023-05-17T20:31:26.799Z,101083.84
2023-05-17T20:34:14.392Z,101096.72
2023-05-17T20:37:01.330Z,101056.56
2023-05-17T20:39:56.817Z,101095.59
2023-05-17T20:42:43.566Z,101106.88
2023-05-17T20:45:31.320Z,101056.34
2023-05-17T20:48:17.852Z,101129.25
2023-05-17T20:51:07.081Z,101085.53
2023-05-17T20:53:56.511Z,101116.69
2023-05-17T20:56:44.201Z,101138.38
2023-05-17T20:59:31.570Z,101132.25
2023-05-17T21:02:18.718Z,101085.94
2023-05-17T21:05:09.304Z,101104.44
2023-05-17T21:07:56.794Z,101141.72
2023-05-17T21:10:46.600Z,101135.06
2023-05-17T21:13:33.593Z,101141.81
2023-05-17T21:16:20.206Z,101121.09
2023-05-17T21:19:07.225Z,101125.13
2023-05-17T21:21:57.612Z,101158.41
2023-05-17T21:24:44.349Z,101149.81
2023-05-17T21:27:31.195Z,101152.78
2023-05-17T21:30:23.582Z,101166.59
2023-05-17T21:33:10.194Z,101166.22
2023-05-17T21:35:57.504Z,101113.47
2023-05-17T21:38:46.814Z,101166.78
2023-05-17T21:41:34.516Z,101150.50
2023-05-17T21:44:21.104Z,101159.56
2023-05-17T21:47:08.204Z,101142.84
2023-05-17T21:49:54.998Z,101117.81
2023-05-17T21:52:42.276Z,101153.84
2023-05-17T21:55:36.510Z,101103.69
2023-05-17T21:58:32.826Z,101148.88
2023-05-17T22:01:24.694Z,101151.56
2023-05-17T22:04:15.391Z,101171.75
2023-05-17T22:07:01.919Z,101157.63
2023-05-17T22:09:49.162Z,101142.25
2023-05-17T22:12:35.852Z,101137.09
2023-05-17T22:15:23.447Z,101190.59
2023-05-17T22:18:12.615Z,101171.22
2023-05-17T22:21:02.593Z,101163.28
2023-05-17T22:23:50.216Z,101168.69
2023-05-17T22:26:37.817Z,101129.31
2023-05-17T22:29:24.412Z,101135.34
2023-05-17T22:32:13.301Z,101079.03
2023-05-17T22:34:59.693Z,101131.63
2023-05-17T22:37:46.777Z,101151.56
2023-05-17T22:40:33.660Z,101158.59
2023-05-17T22:43:21.677Z,101117.97
2023-05-17T22:46:09.869Z,101144.47
2023-05-17T22:48:59.393Z,101157.69
2023-05-17T22:51:48.315Z,101170.34
2023-05-17T22:54:36.467Z,101163.84
2023-05-17T22:57:22.772Z,101109.28
2023-05-17T23:00:11.665Z,101170.63
2023-05-17T23:03:04.768Z,101159.41
2023-05-17T23:06:02.569Z,101173.81
2023-05-17T23:08:49.920Z,101099.50
2023-05-17T23:11:37.171Z,101162.59
2023-05-17T23:14:23.656Z,101160.63
2023-05-17T23:17:11.022Z,101168.88
2023-05-17T23:19:57.852Z,101159.22
2023-05-17T23:22:47.721Z,101147.88
2023-05-17T23:25:37.246Z,101120.06
2023-05-17T23:28:25.235Z,101174.72
2023-05-17T23:31:11.745Z,101176.34
2023-05-17T23:33:58.851Z,101180.75
2023-05-17T23:36:45.336Z,101167.06
2023-05-17T23:39:34.757Z,101146.25
2023-05-17T23:42:22.515Z,101150.25
2023-05-17T23:45:10.096Z,101187.59
2023-05-17T23:47:59.838Z,101171.97
2023-05-17T23:50:47.097Z,101178.81
2023-05-17T23:53:34.427Z,101190.63
2023-05-17T23:56:23.378Z,101187.88
2023-05-17T23:59:10.115Z,101181.16
